Time;durP1;ratioP1;P1;durP2;ratioP2;P2;SDS_P1;SDS_P2;PMS_P1;PMS_P2;Temp;Humidity;BMP_temperature;BMP_pressure;BME280_temperature;BME280_humidity;BME280_pressure;Samples;Min_cycle;Max_cycle;Signal;HPM_P1;HPM_P2
2023/12/13 05:00:35;;;;;;;13.05;7.12;;;;;;;3.62;100.00;99089.16;6088991;27;20937;-91
2023/12/13 05:03:40;;;;;;;11.32;6.25;;;;;;;3.59;100.00;99097.47;5414561;28;33996;-90
2023/12/13 05:06:46;;;;;;;11.23;7.05;;;;;;;3.67;100.00;99107.31;5419732;28;34718;-90
2023/12/13 05:13:51;;;;;;;10.68;6.55;;;;;;;3.59;100.00;99093.00;2392545;31;20104;-88
2023/12/13 05:46:06;;;;;;;9.93;6.75;;;;;;;3.69;100.00;99097.34;1043543;27;20419;-90
2023/12/13 05:49:09;;;;;;;10.98;6.35;;;;;;;3.68;100.00;99087.69;5379409;33;32498;-88
2023/12/13 05:52:15;;;;;;;10.40;6.12;;;;;;;3.78;100.00;99080.38;5356048;33;34110;-90
2023/12/13 05:55:18;;;;;;;10.00;7.03;;;;;;;3.72;100.00;99083.72;5355899;33;34795;-90
2023/12/13 05:58:21;;;;;;;8.45;5.25;;;;;;;3.78;100.00;99085.69;5380636;33;34231;-91
2023/12/13 06:01:31;;;;;;;9.82;5.82;;;;;;;3.74;100.00;99081.69;5517079;27;34576;-88
2023/12/13 06:04:34;;;;;;;9.95;5.93;;;;;;;3.75;100.00;99076.22;5366204;33;34594;-88
2023/12/13 06:07:38;;;;;;;9.80;6.28;;;;;;;3.71;100.00;99072.19;5355677;33;34156;-91
2023/12/13 06:10:42;;;;;;;10.02;6.28;;;;;;;3.69;100.00;99068.06;5413449;27;33645;-90
2023/12/13 06:14:01;;;;;;;9.15;5.65;;;;;;;3.68;100.00;99072.53;5414820;27;35243;-89
2023/12/13 06:17:04;;;;;;;10.55;5.75;;;;;;;3.77;100.00;99060.91;5378914;33;34680;-89
2023/12/13 06:20:08;;;;;;;10.35;5.82;;;;;;;3.77;100.00;99063.59;5366954;33;33830;-89
2023/12/13 06:23:11;;;;;;;8.15;5.45;;;;;;;3.80;100.00;99054.41;5367260;33;34920;-89
2023/12/13 06:26:13;;;;;;;9.93;5.95;;;;;;;3.77;100.00;99050.28;5366620;33;32439;-89
2023/12/13 06:29:20;;;;;;;8.05;6.07;;;;;;;3.81;100.00;99042.78;5369192;33;34097;-89
2023/12/13 06:32:23;;;;;;;8.98;5.80;;;;;;;3.77;100.00;99041.44;5369980;33;33712;-89
2023/12/13 06:35:26;;;;;;;9.38;5.80;;;;;;;3.78;100.00;99041.28;5372303;33;34066;-89
2023/12/13 06:38:29;;;;;;;8.77;5.68;;;;;;;3.77;100.00;99046.75;5369830;33;34596;-89
2023/12/13 06:41:32;;;;;;;8.93;5.97;;;;;;;3.75;100.00;99052.25;5370061;33;34558;-89
2023/12/13 06:44:37;;;;;;;8.10;5.68;;;;;;;3.76;100.00;99059.25;5349938;33;35551;-89
2023/12/13 06:47:40;;;;;;;8.32;5.55;;;;;;;3.74;100.00;99058.56;5364747;33;35052;-89
2023/12/13 06:50:43;;;;;;;7.65;5.37;;;;;;;3.77;100.00;99063.59;5380447;33;34950;-89
2023/12/13 06:53:46;;;;;;;7.37;4.65;;;;;;;3.83;100.00;99064.72;5367367;33;34699;-89
2023/12/13 06:56:49;;;;;;;6.50;5.35;;;;;;;3.87;100.00;99074.06;5377921;33;34158;-89
2023/12/13 06:59:52;;;;;;;7.15;5.28;;;;;;;3.90;100.00;99067.56;5393586;33;35552;-89
2023/12/13 07:02:55;;;;;;;8.30;5.68;;;;;;;3.91;100.00;99063.91;5354646;33;33814;-89
2023/12/13 07:05:58;;;;;;;8.73;6.00;;;;;;;3.85;100.00;99049.41;5366408;33;34386;-89
2023/12/13 07:09:02;;;;;;;10.23;6.22;;;;;;;3.84;100.00;99045.94;5343189;33;34668;-89
2023/12/13 07:12:05;;;;;;;7.40;5.32;;;;;;;3.89;100.00;99053.44;5380668;33;34059;-89
2023/12/13 07:15:10;;;;;;;8.43;5.80;;;;;;;3.89;100.00;99052.56;5380555;33;34143;-89
2023/12/13 07:18:18;;;;;;;7.37;5.18;;;;;;;3.94;100.00;99050.25;5423255;27;33807;-90
2023/12/13 07:21:21;;;;;;;7.20;4.93;;;;;;;4.02;100.00;99060.91;5366537;33;35076;-90
2023/12/13 07:24:24;;;;;;;8.65;5.68;;;;;;;4.02;100.00;99055.56;5364851;33;34560;-90
2023/12/13 07:27:27;;;;;;;6.40;4.43;;;;;;;4.02;100.00;99053.72;5353281;33;35324;-93
2023/12/13 07:30:31;;;;;;;7.22;4.80;;;;;;;3.95;100.00;99051.91;5364149;33;34579;-94
2023/12/13 07:33:38;;;;;;;7.60;4.62;;;;;;;3.90;100.00;99051.59;5352214;33;34212;-93
2023/12/13 07:36:48;;;;;;;7.45;4.20;;;;;;;3.95;100.00;99054.56;5347948;33;34006;-89
2023/12/13 07:39:51;;;;;;;8.55;4.70;;;;;;;3.94;100.00;99047.59;5351845;33;34061;-90
2023/12/13 07:42:56;;;;;;;7.03;4.80;;;;;;;3.93;100.00;99053.91;5363639;33;34008;-89
2023/12/13 07:45:59;;;;;;;7.18;4.25;;;;;;;3.89;100.00;99050.75;5432096;27;169248;-89
2023/12/13 07:49:03;;;;;;;4.97;4.47;;;;;;;3.84;100.00;99053.09;5365886;33;32331;-89
2023/12/13 07:52:06;;;;;;;4.55;4.07;;;;;;;3.83;100.00;99040.75;5352158;33;35311;-89
2023/12/13 07:55:10;;;;;;;6.62;4.15;;;;;;;3.80;100.00;99033.97;5357900;33;34093;-89
2023/12/13 07:58:15;;;;;;;7.00;4.43;;;;;;;3.75;100.00;99033.63;5335434;33;33652;-89
2023/12/13 08:01:18;;;;;;;5.00;3.85;;;;;;;3.74;100.00;99033.78;5366147;33;35030;-89
2023/12/13 08:04:21;;;;;;;4.43;3.55;;;;;;;3.71;100.00;99011.00;5347566;33;34062;-89
2023/12/13 08:07:25;;;;;;;6.45;4.53;;;;;;;3.73;100.00;99013.50;5343670;33;33782;-89
2023/12/13 08:10:28;;;;;;;5.68;4.45;;;;;;;3.69;100.00;99014.84;5365220;33;33948;-89
2023/12/13 08:13:31;;;;;;;8.00;4.62;;;;;;;3.67;100.00;99008.84;5360440;33;34095;-89
2023/12/13 08:16:34;;;;;;;4.82;3.87;;;;;;;3.75;100.00;98996.38;5353767;33;33765;-89
2023/12/13 08:19:38;;;;;;;5.82;4.00;;;;;;;3.70;100.00;99012.00;5363814;33;33652;-89
2023/12/13 08:22:41;;;;;;;6.68;4.75;;;;;;;3.69;100.00;99004.19;5362894;33;34105;-89
2023/12/13 08:25:44;;;;;;;8.32;5.50;;;;;;;3.72;100.00;99001.19;5362859;33;34352;-89
2023/12/13 08:28:47;;;;;;;9.20;5.45;;;;;;;3.76;100.00;98997.19;5373705;33;33725;-89
2023/12/13 08:32:04;;;;;;;10.65;5.70;;;;;;;3.81;100.00;98994.84;5361281;33;34012;-88
2023/12/13 08:35:07;;;;;;;6.72;5.20;;;;;;;3.82;100.00;98997.34;5347868;33;34443;-89
2023/12/13 08:38:10;;;;;;;8.98;5.25;;;;;;;3.84;100.00;98994.53;5360845;33;34000;-88
2023/12/13 08:41:15;;;;;;;8.43;5.03;;;;;;;3.84;100.00;98989.19;5356490;33;34890;-88
2023/12/13 08:44:17;;;;;;;9.73;5.18;;;;;;;3.83;100.00;98999.03;5343553;33;34841;-88
2023/12/13 08:47:23;;;;;;;6.75;4.43;;;;;;;3.84;100.00;99003.34;5346934;33;33991;-89
2023/12/13 08:50:28;;;;;;;6.85;4.40;;;;;;;3.88;100.00;99001.16;5355358;33;33680;-89
2023/12/13 08:53:32;;;;;;;7.25;4.18;;;;;;;3.92;100.00;99004.31;5349002;33;33883;-89
2023/12/13 08:56:35;;;;;;;4.62;3.58;;;;;;;4.00;100.00;99001.63;5348271;33;34426;-88
2023/12/13 08:59:38;;;;;;;5.95;4.60;;;;;;;3.88;100.00;98998.50;5344184;33;34702;-89
2023/12/13 09:02:41;;;;;;;5.35;3.65;;;;;;;3.87;100.00;99005.66;5371577;33;33826;-89
2023/12/13 09:05:44;;;;;;;7.85;4.15;;;;;;;3.94;100.00;99015.63;5366672;33;33973;-89
2023/12/13 09:08:48;;;;;;;6.78;4.78;;;;;;;3.96;100.00;99009.13;5344285;33;34076;-89
2023/12/13 09:11:52;;;;;;;5.93;4.55;;;;;;;3.78;100.00;99004.00;5385444;32;34643;-88
2023/12/13 09:14:55;;;;;;;5.57;4.75;;;;;;;3.76;100.00;98997.19;5341895;33;34622;-89
2023/12/13 09:18:10;;;;;;;5.43;4.53;;;;;;;3.74;100.00;98997.34;5356854;33;35220;-93
2023/12/13 09:21:14;;;;;;;8.93;5.55;;;;;;;3.87;100.00;98996.84;5360817;33;34276;-92
2023/12/13 09:24:17;;;;;;;9.30;5.65;;;;;;;3.88;100.00;98985.19;5362069;33;34843;-90
2023/12/13 09:27:22;;;;;;;9.25;5.85;;;;;;;3.80;100.00;98988.72;5369674;33;34393;-89
2023/12/13 09:30:26;;;;;;;9.75;5.32;;;;;;;3.78;100.00;98985.38;5362912;33;34485;-89
2023/12/13 09:33:30;;;;;;;12.37;5.37;;;;;;;3.77;100.00;98988.19;5349893;33;34336;-88
2023/12/13 09:36:34;;;;;;;8.57;5.32;;;;;;;3.83;100.00;98991.03;5355656;33;34321;-89
2023/12/13 09:39:40;;;;;;;6.30;4.40;;;;;;;3.88;100.00;98995.84;5356406;33;33720;-89
2023/12/13 09:42:45;;;;;;;6.75;4.60;;;;;;;3.77;100.00;98999.69;5376405;33;35674;-89
2023/12/13 09:45:53;;;;;;;5.93;4.40;;;;;;;3.69;100.00;98988.22;5381625;33;34578;-89
2023/12/13 09:48:57;;;;;;;7.12;4.60;;;;;;;3.72;100.00;98987.87;5370259;33;34577;-89
2023/12/13 09:52:06;;;;;;;5.47;4.10;;;;;;;3.64;100.00;98986.06;5355463;33;34436;-89
2023/12/13 09:55:13;;;;;;;6.80;4.78;;;;;;;3.73;100.00;98990.38;5349596;33;34086;-89
2023/12/13 09:58:15;;;;;;;7.87;5.18;;;;;;;3.69;100.00;98993.56;5365629;33;33612;-89
2023/12/13 10:01:18;;;;;;;7.30;4.70;;;;;;;3.68;100.00;98997.19;5365548;33;33981;-88
2023/12/13 10:04:28;;;;;;;6.93;5.05;;;;;;;3.70;100.00;98995.19;5368728;33;34028;-88
2023/12/13 10:07:31;;;;;;;8.23;5.10;;;;;;;3.63;100.00;98987.06;5369225;33;34053;-89
2023/12/13 10:10:37;;;;;;;6.12;4.53;;;;;;;3.69;100.00;98986.38;5355603;33;34112;-89
2023/12/13 10:13:40;;;;;;;5.78;4.35;;;;;;;3.74;100.00;98993.84;5375956;33;35166;-89
2023/12/13 10:16:43;;;;;;;9.38;4.78;;;;;;;3.83;100.00;98992.84;5371027;33;34436;-89
2023/12/13 10:19:48;;;;;;;7.87;4.95;;;;;;;3.91;100.00;98989.34;5366823;33;35051;-88
2023/12/13 10:22:51;;;;;;;6.28;4.30;;;;;;;3.81;100.00;98982.38;5377068;33;34225;-89
2023/12/13 10:25:54;;;;;;;5.90;4.37;;;;;;;3.74;100.00;98973.38;5355125;33;35420;-89
2023/12/13 10:29:00;;;;;;;6.12;4.30;;;;;;;3.71;100.00;98971.06;5374937;33;34888;-89
2023/12/13 10:32:03;;;;;;;7.45;5.20;;;;;;;3.78;100.00;98972.06;5363526;33;34106;-88
2023/12/13 10:35:09;;;;;;;8.40;5.20;;;;;;;3.82;100.00;98970.72;5360453;33;34437;-88
2023/12/13 10:38:14;;;;;;;11.95;6.28;;;;;;;3.81;100.00;98958.41;5364646;33;34822;-88
2023/12/13 10:41:17;;;;;;;13.98;7.68;;;;;;;3.93;100.00;98963.38;5373819;33;34265;-88
2023/12/13 10:44:22;;;;;;;9.82;6.22;;;;;;;3.98;100.00;98961.88;5366587;33;34092;-88
2023/12/13 10:47:27;;;;;;;10.40;6.10;;;;;;;3.91;100.00;98957.41;5359942;33;34254;-88
2023/12/13 10:50:31;;;;;;;12.40;7.07;;;;;;;3.94;100.00;98947.22;5361236;33;33719;-88
2023/12/13 10:53:36;;;;;;;8.75;6.22;;;;;;;4.03;100.00;98937.38;5361956;33;33856;-88
2023/12/13 10:56:39;;;;;;;10.82;6.80;;;;;;;4.02;100.00;98939.22;5348349;33;33745;-88
2023/12/13 10:59:45;;;;;;;10.50;6.30;;;;;;;4.13;100.00;98935.38;5354924;33;33759;-89
2023/12/13 11:02:53;;;;;;;10.82;6.60;;;;;;;4.09;100.00;98924.25;5359069;33;33745;-88
2023/12/13 11:05:56;;;;;;;7.53;4.80;;;;;;;4.15;100.00;98914.69;5379238;33;34096;-88
2023/12/13 11:09:13;;;;;;;8.60;5.50;;;;;;;4.12;100.00;98911.56;5370717;33;33977;-88
2023/12/13 11:12:18;;;;;;;5.80;4.80;;;;;;;4.09;100.00;98910.06;5362561;33;35175;-88
2023/12/13 11:15:21;;;;;;;5.20;4.45;;;;;;;4.21;100.00;98908.72;5361404;33;33468;-88
2023/12/13 11:18:25;;;;;;;5.03;4.12;;;;;;;4.06;100.00;98897.91;5348644;33;34416;-88
2023/12/13 11:21:31;;;;;;;5.45;4.47;;;;;;;3.98;100.00;98894.47;5352264;33;33981;-88
2023/12/13 11:24:36;;;;;;;7.22;4.90;;;;;;;3.98;100.00;98897.97;5360295;33;34311;-88
2023/12/13 11:27:53;;;;;;;9.05;5.65;;;;;;;3.99;100.00;98893.47;5377505;33;33841;-88
2023/12/13 11:30:58;;;;;;;6.93;5.00;;;;;;;4.03;100.00;98884.97;5359534;33;34124;-88
2023/12/13 11:34:04;;;;;;;6.80;5.32;;;;;;;4.11;100.00;98884.09;5365273;33;34296;-88
2023/12/13 11:37:11;;;;;;;12.13;6.12;;;;;;;4.14;100.00;98880.25;5366555;33;33889;-88
2023/12/13 11:40:15;;;;;;;7.80;5.72;;;;;;;4.17;100.00;98866.59;5369589;33;34731;-87
2023/12/13 11:43:19;;;;;;;8.55;5.50;;;;;;;4.21;100.00;98868.75;5375369;33;34425;-88
2023/12/13 11:46:22;;;;;;;9.05;5.32;;;;;;;4.32;100.00;98870.19;5373359;33;34454;-88
2023/12/13 11:49:26;;;;;;;7.28;4.75;;;;;;;4.15;100.00;98869.41;5349615;33;34383;-88
2023/12/13 11:52:29;;;;;;;8.40;5.20;;;;;;;4.09;100.00;98860.31;5343294;33;34445;-87
2023/12/13 11:55:32;;;;;;;9.10;5.90;;;;;;;4.14;100.00;98865.13;5378087;33;35265;-87
2023/12/13 11:58:35;;;;;;;10.52;5.55;;;;;;;4.18;100.00;98865.59;5359757;33;35663;-87
2023/12/13 12:01:40;;;;;;;11.30;7.18;;;;;;;4.25;100.00;98862.06;5381676;33;34508;-88
2023/12/13 12:04:44;;;;;;;7.72;5.80;;;;;;;4.23;100.00;98857.91;5365879;33;33764;-87
2023/12/13 12:08:04;;;;;;;9.90;7.07;;;;;;;4.20;100.00;98861.75;5363644;33;34448;-87
2023/12/13 12:11:13;;;;;;;9.30;6.10;;;;;;;4.23;100.00;98864.06;5369686;33;34150;-87
2023/12/13 12:14:16;;;;;;;10.90;6.68;;;;;;;4.20;100.00;98868.91;5381396;33;34205;-87
2023/12/13 12:17:19;;;;;;;10.95;6.82;;;;;;;4.18;100.00;98870.91;5351237;33;34327;-88
2023/12/13 12:20:24;;;;;;;9.90;5.90;;;;;;;4.24;100.00;98870.22;5368128;33;34255;-91
2023/12/13 12:23:29;;;;;;;9.48;6.03;;;;;;;4.21;100.00;98878.56;5365067;33;34539;-91
2023/12/13 12:26:33;;;;;;;11.63;6.60;;;;;;;4.15;100.00;98872.09;5364969;33;34709;-92
2023/12/13 12:29:41;;;;;;;10.82;6.30;;;;;;;4.12;100.00;98874.28;5360725;33;34062;-88
2023/12/13 12:32:44;;;;;;;9.05;5.47;;;;;;;4.16;100.00;98889.75;5360843;33;34132;-88
2023/12/13 12:35:48;;;;;;;8.20;5.75;;;;;;;4.16;100.00;98891.59;5365209;33;35065;-88
2023/12/13 12:38:51;;;;;;;10.43;5.18;;;;;;;4.05;100.00;98890.94;5360121;33;34968;-88
2023/12/13 12:41:57;;;;;;;6.82;5.20;;;;;;;4.10;100.00;98893.09;5364115;33;32812;-87
2023/12/13 12:45:00;;;;;;;7.93;5.65;;;;;;;4.01;100.00;98884.31;5375894;33;33733;-87
2023/12/13 12:48:03;;;;;;;10.82;5.57;;;;;;;4.02;100.00;98888.63;5367111;33;34317;-88
2023/12/13 12:51:06;;;;;;;8.75;6.00;;;;;;;4.06;100.00;98892.59;5366941;33;33849;-88
2023/12/13 12:54:09;;;;;;;9.93;6.22;;;;;;;4.08;100.00;98895.09;5361051;33;34065;-88
2023/12/13 12:57:12;;;;;;;8.90;5.72;;;;;;;4.11;100.00;98891.25;5358292;33;35499;-88
2023/12/13 13:00:18;;;;;;;12.43;7.12;;;;;;;4.06;100.00;98883.78;5364081;33;34141;-87
2023/12/13 13:03:21;;;;;;;9.85;5.75;;;;;;;4.07;100.00;98877.47;5356484;33;34751;-88
2023/12/13 13:06:25;;;;;;;15.23;7.45;;;;;;;4.00;100.00;98866.66;5367419;33;35259;-87
2023/12/13 13:09:28;;;;;;;13.05;6.68;;;;;;;3.98;100.00;98871.34;5382872;33;34666;-89
2023/12/13 13:12:39;;;;;;;13.77;6.27;;;;;;;4.04;100.00;98877.81;5355247;33;33056;-88
2023/12/13 13:15:42;;;;;;;17.10;7.93;;;;;;;4.13;100.00;98876.78;5358870;33;35076;-88
2023/12/13 13:18:46;;;;;;;12.90;7.15;;;;;;;4.18;100.00;98874.41;5377154;33;33769;-88
2023/12/13 13:21:51;;;;;;;12.65;7.47;;;;;;;4.13;100.00;98868.78;5359639;33;34400;-88
2023/12/13 13:24:54;;;;;;;12.75;7.57;;;;;;;4.13;100.00;98862.62;5366892;33;34000;-88
2023/12/13 13:27:57;;;;;;;14.75;8.02;;;;;;;4.12;100.00;98853.78;5351466;33;34666;-88
2023/12/13 13:31:00;;;;;;;14.73;8.77;;;;;;;4.17;100.00;98859.44;5363606;33;34762;-88
2023/12/13 13:34:03;;;;;;;19.45;9.13;;;;;;;4.17;100.00;98867.44;5339716;33;34019;-88
2023/12/13 13:37:06;;;;;;;13.65;7.85;;;;;;;4.20;100.00;98861.75;5355953;33;32744;-88
2023/12/13 13:40:10;;;;;;;15.43;8.45;;;;;;;4.19;100.00;98854.78;5350447;33;34558;-88
2023/12/13 13:43:13;;;;;;;16.10;8.82;;;;;;;4.21;100.00;98841.25;5363918;33;34702;-88
2023/12/13 13:46:16;;;;;;;15.73;8.82;;;;;;;4.01;100.00;98840.88;5367281;33;34819;-88
2023/12/13 13:49:19;;;;;;;13.68;7.82;;;;;;;4.10;100.00;98845.16;5366631;33;33607;-88
2023/12/13 13:52:22;;;;;;;26.80;12.95;;;;;;;4.13;100.00;98858.13;5363168;33;34741;-88
2023/12/13 13:55:26;;;;;;;23.70;12.63;;;;;;;4.11;100.00;98851.31;5382608;33;34268;-88
2023/12/13 13:58:29;;;;;;;33.53;16.77;;;;;;;4.09;100.00;98863.00;5355849;33;34205;-88
2023/12/13 14:01:32;;;;;;;30.02;16.33;;;;;;;4.17;100.00;98851.44;5355992;33;33800;-89
2023/12/13 14:04:36;;;;;;;32.97;16.00;;;;;;;4.14;100.00;98849.13;5337199;33;35450;-88
2023/12/13 14:07:39;;;;;;;28.77;15.38;;;;;;;4.04;100.00;98851.19;5338182;33;33661;-88
2023/12/13 14:10:43;;;;;;;28.42;14.77;;;;;;;3.97;100.00;98853.69;5364706;33;34028;-88
2023/12/13 14:13:47;;;;;;;24.70;12.93;;;;;;;4.01;100.00;98851.53;5366425;33;35406;-88
2023/12/13 14:16:50;;;;;;;21.35;12.00;;;;;;;4.02;100.00;98851.34;5341143;33;33701;-88
2023/12/13 14:19:53;;;;;;;21.95;12.73;;;;;;;4.10;100.00;98861.16;5358603;33;34042;-88
2023/12/13 14:22:55;;;;;;;30.50;13.02;;;;;;;4.06;100.00;98859.81;5359981;33;34028;-90
2023/12/13 14:25:58;;;;;;;30.33;12.15;;;;;;;3.96;100.00;98861.88;5387634;33;34439;-91
2023/12/13 14:29:03;;;;;;;25.30;11.50;;;;;;;3.93;100.00;98867.53;5367354;33;34182;-91
2023/12/13 14:32:07;;;;;;;20.15;11.68;;;;;;;3.96;100.00;98867.19;5365603;33;35527;-91
2023/12/13 14:35:11;;;;;;;15.63;9.60;;;;;;;4.00;100.00;98866.66;5383486;33;35531;-89
2023/12/13 14:38:15;;;;;;;17.70;8.77;;;;;;;4.14;100.00;98862.44;5348842;33;35634;-88
2023/12/13 14:41:18;;;;;;;15.77;8.13;;;;;;;4.22;100.00;98865.06;5379959;33;34295;-88
2023/12/13 14:44:22;;;;;;;19.87;8.85;;;;;;;4.16;100.00;98868.44;5387352;32;35591;-88
2023/12/13 14:47:25;;;;;;;16.20;8.75;;;;;;;4.15;100.00;98877.41;5374066;33;35371;-88
2023/12/13 14:50:28;;;;;;;18.65;9.10;;;;;;;4.16;100.00;98879.09;5379525;33;35026;-88
2023/12/13 14:53:31;;;;;;;18.95;10.13;;;;;;;4.13;100.00;98883.94;5348566;33;33705;-88
2023/12/13 14:56:36;;;;;;;14.70;9.13;;;;;;;4.08;100.00;98881.78;5368577;33;34139;-88
2023/12/13 14:59:40;;;;;;;17.10;9.02;;;;;;;4.08;100.00;98879.94;5368435;33;33999;-87
2023/12/13 15:02:44;;;;;;;15.25;8.20;;;;;;;4.05;100.00;98869.66;5394133;33;33732;-88
2023/12/13 15:05:47;;;;;;;26.17;10.43;;;;;;;4.06;100.00;98873.13;5386973;33;35267;-87
2023/12/13 15:08:50;;;;;;;21.23;9.10;;;;;;;4.02;100.00;98866.50;5342364;33;34939;-88
2023/12/13 15:11:53;;;;;;;19.65;9.23;;;;;;;3.99;100.00;98865.00;5362788;33;34098;-87
2023/12/13 15:14:56;;;;;;;20.92;10.20;;;;;;;4.03;100.00;98862.81;5380171;33;34850;-88
2023/12/13 15:17:59;;;;;;;26.60;9.77;;;;;;;3.97;100.00;98860.84;5370730;33;34677;-88
2023/12/13 15:21:02;;;;;;;21.33;10.32;;;;;;;3.95;100.00;98860.19;5338978;33;34664;-87
2023/12/13 15:24:06;;;;;;;16.70;8.70;;;;;;;3.99;100.00;98857.03;5360426;33;33615;-87
2023/12/13 15:27:13;;;;;;;20.60;8.07;;;;;;;4.00;100.00;98860.50;5364186;33;34809;-88
2023/12/13 15:30:16;;;;;;;20.85;9.00;;;;;;;3.94;100.00;98845.22;5350375;33;34203;-87
2023/12/13 15:33:19;;;;;;;16.98;8.95;;;;;;;3.90;100.00;98843.94;5344755;33;34071;-87
2023/12/13 15:36:23;;;;;;;16.85;8.10;;;;;;;3.88;100.00;98854.72;5359621;33;34317;-87
2023/12/13 15:39:25;;;;;;;15.35;8.48;;;;;;;3.92;100.00;98847.22;5360059;33;34718;-87
2023/12/13 15:42:28;;;;;;;20.23;7.90;;;;;;;3.85;100.00;98842.59;5353281;33;34715;-87
2023/12/13 15:45:31;;;;;;;22.17;9.90;;;;;;;3.87;100.00;98827.28;5361763;33;33776;-87
2023/12/13 15:48:34;;;;;;;24.37;9.23;;;;;;;3.76;100.00;98837.47;5366337;33;34710;-87
2023/12/13 15:51:37;;;;;;;20.52;8.65;;;;;;;3.75;100.00;98838.50;5341444;33;34704;-87
2023/12/13 15:54:45;;;;;;;22.80;9.32;;;;;;;3.73;100.00;98825.34;5342132;33;34668;-87
2023/12/13 15:57:48;;;;;;;20.83;8.98;;;;;;;3.75;100.00;98831.34;5382240;33;33884;-87
2023/12/13 16:00:52;;;;;;;22.40;9.18;;;;;;;3.73;100.00;98830.66;5354148;33;34216;-87
2023/12/13 16:03:57;;;;;;;24.65;10.15;;;;;;;3.70;100.00;98833.69;5338187;33;34128;-88
2023/12/13 16:07:00;;;;;;;22.58;9.65;;;;;;;3.71;100.00;98845.16;5348860;33;34521;-87
2023/12/13 16:10:04;;;;;;;22.10;9.00;;;;;;;3.69;100.00;98841.84;5364339;33;34651;-87
2023/12/13 16:13:07;;;;;;;22.08;9.38;;;;;;;3.78;100.00;98846.12;5366235;33;34390;-87
2023/12/13 16:16:15;;;;;;;25.58;9.43;;;;;;;3.77;100.00;98847.12;5352141;33;36088;-87
2023/12/13 16:19:18;;;;;;;22.58;9.60;;;;;;;3.82;100.00;98856.25;5363695;33;34245;-87
2023/12/13 16:22:21;;;;;;;22.58;8.40;;;;;;;3.84;100.00;98858.75;5350003;33;34710;-87
2023/12/13 16:25:24;;;;;;;23.12;9.95;;;;;;;3.84;100.00;98853.44;5337914;33;34230;-87
2023/12/13 16:28:27;;;;;;;26.80;9.23;;;;;;;3.86;100.00;98859.38;5362739;33;34627;-89
2023/12/13 16:31:33;;;;;;;22.42;9.52;;;;;;;3.86;100.00;98857.59;5340359;33;33424;-91
2023/12/13 16:34:36;;;;;;;27.90;10.27;;;;;;;3.79;100.00;98855.78;5355278;33;35075;-91
2023/12/13 16:37:43;;;;;;;19.98;11.27;;;;;;;3.76;100.00;98843.63;5369144;33;35151;-88
2023/12/13 16:40:46;;;;;;;24.02;10.20;;;;;;;3.84;100.00;98837.47;5372520;33;33997;-88
2023/12/13 16:43:51;;;;;;;22.70;9.70;;;;;;;3.90;100.00;98843.94;5368577;33;33879;-87
2023/12/13 16:46:55;;;;;;;24.30;9.82;;;;;;;3.89;100.00;98837.78;5355870;33;34558;-87
2023/12/13 16:49:58;;;;;;;19.40;9.77;;;;;;;3.87;100.00;98829.13;5367330;33;33825;-87
2023/12/13 16:53:01;;;;;;;23.80;9.85;;;;;;;3.89;100.00;98826.28;5382697;33;34114;-87
2023/12/13 16:56:04;;;;;;;19.60;8.95;;;;;;;3.88;100.00;98825.44;5355966;33;34141;-87
2023/12/13 16:59:07;;;;;;;17.95;8.30;;;;;;;3.92;100.00;98817.94;5368328;33;34382;-87
2023/12/13 17:02:12;;;;;;;15.98;8.98;;;;;;;3.85;100.00;98815.16;5367804;33;33972;-87
